createdAt,value
2023-07-06T00:00:09.981Z,2.53
2023-07-06T00:05:15.053Z,1.50
2023-07-06T00:10:17.221Z,1.90
2023-07-06T00:15:19.413Z,1.40
2023-07-06T00:20:23.676Z,2.50
2023-07-06T00:25:27.149Z,1.50
2023-07-06T00:30:54.223Z,1.52
2023-07-06T00:35:57.230Z,1.85
2023-07-06T00:40:59.725Z,1.35
2023-07-06T00:46:11.501Z,1.45
2023-07-06T00:51:25.988Z,1.73
2023-07-06T00:56:36.068Z,1.90
2023-07-06T01:01:46.576Z,2.20
2023-07-06T01:06:52.465Z,2.20
2023-07-06T01:11:56.629Z,1.90
2023-07-06T01:17:15.389Z,1.92
2023-07-06T01:22:49.721Z,1.87
2023-07-06T01:28:01.161Z,1.73
2023-07-06T01:33:13.053Z,1.67
2023-07-06T01:38:15.858Z,2.95
2023-07-06T01:43:19.629Z,2.78
2023-07-06T01:48:23.618Z,5.70
2023-07-06T01:53:39.908Z,7.50
2023-07-06T01:58:58.321Z,6.15
2023-07-06T02:04:01.645Z,2.97
2023-07-06T02:09:05.731Z,1.90
2023-07-06T02:14:08.031Z,2.33
2023-07-06T02:19:10.193Z,1.98
2023-07-06T02:24:12.599Z,2.13
2023-07-06T02:29:16.535Z,2.25
2023-07-06T02:34:25.918Z,2.20
2023-07-06T02:44:30.669Z,2.33
2023-07-06T02:49:34.108Z,1.98
2023-07-06T02:54:37.840Z,1.42
2023-07-06T02:59:40.064Z,1.77
2023-07-06T03:04:42.641Z,1.77
2023-07-06T03:09:45.577Z,1.40
2023-07-06T03:14:47.751Z,1.25
2023-07-06T03:19:53.029Z,1.88
2023-07-06T03:24:55.212Z,1.77
2023-07-06T03:29:57.404Z,1.88
2023-07-06T03:34:59.633Z,1.60
2023-07-06T03:40:01.795Z,1.80
2023-07-06T03:45:06.458Z,1.45
2023-07-06T03:50:13.667Z,1.45
2023-07-06T03:55:25.486Z,1.67
2023-07-06T04:00:29.862Z,2.45
2023-07-06T04:05:36.177Z,1.20
2023-07-06T04:10:40.199Z,2.10
2023-07-06T04:15:47.364Z,1.70
2023-07-06T04:20:49.960Z,1.73
2023-07-06T04:25:54.429Z,1.85
2023-07-06T04:30:56.970Z,1.90
2023-07-06T04:35:59.441Z,2.80
2023-07-06T04:41:02.476Z,2.05
2023-07-06T04:46:05.000Z,1.88
2023-07-06T04:51:07.188Z,2.20
2023-07-06T04:56:09.546Z,1.83
2023-07-06T05:01:12.171Z,2.28
2023-07-06T05:06:14.528Z,1.63
2023-07-06T05:11:17.199Z,2.05
2023-07-06T05:16:19.329Z,2.30
2023-07-06T05:21:22.210Z,2.08
2023-07-06T05:26:24.369Z,1.73
2023-07-06T05:31:27.747Z,3.13
2023-07-06T05:36:29.936Z,2.75
2023-07-06T05:41:32.125Z,3.25
2023-07-06T05:46:34.309Z,2.60
2023-07-06T05:51:36.533Z,2.63
2023-07-06T05:56:38.732Z,4.25
2023-07-06T06:01:41.274Z,3.83
2023-07-06T06:07:01.591Z,2.22
2023-07-06T06:12:06.082Z,2.17
2023-07-06T06:17:09.170Z,2.72
2023-07-06T06:22:11.395Z,2.45
2023-07-06T06:27:18.765Z,2.88
2023-07-06T06:32:21.334Z,2.05
2023-07-06T06:37:23.606Z,1.40
2023-07-06T06:42:25.756Z,1.73
2023-07-06T06:47:28.147Z,2.13
2023-07-06T06:52:30.351Z,2.38
2023-07-06T06:57:32.710Z,1.73
2023-07-06T07:02:34.955Z,1.00
2023-07-06T07:07:40.762Z,1.25
2023-07-06T07:12:45.251Z,1.05
2023-07-06T07:17:47.543Z,1.77
2023-07-06T07:22:49.730Z,1.52
2023-07-06T07:27:51.907Z,1.30
2023-07-06T07:32:54.434Z,1.23
2023-07-06T07:37:57.323Z,1.65
2023-07-06T07:43:00.698Z,0.82
2023-07-06T07:48:04.108Z,1.60
2023-07-06T07:53:06.287Z,1.10
2023-07-06T07:58:09.430Z,0.85
2023-07-06T08:03:11.865Z,0.95
2023-07-06T08:08:14.779Z,1.17
2023-07-06T08:13:19.082Z,1.02
2023-07-06T08:18:21.300Z,0.80
2023-07-06T08:23:25.702Z,0.80
2023-07-06T08:28:32.630Z,1.13
2023-07-06T08:33:38.420Z,1.15
2023-07-06T08:38:40.723Z,0.88
2023-07-06T08:43:43.208Z,0.60
2023-07-06T08:48:45.391Z,1.35
2023-07-06T08:54:01.807Z,0.85
2023-07-06T08:59:11.585Z,0.95
2023-07-06T09:04:17.763Z,1.00
2023-07-06T09:09:20.264Z,0.90
2023-07-06T09:14:28.713Z,0.98
2023-07-06T09:19:33.880Z,0.95
2023-07-06T09:24:37.315Z,0.98
2023-07-06T09:29:39.585Z,1.15
2023-07-06T09:34:46.132Z,1.05
2023-07-06T09:40:04.797Z,1.30
2023-07-06T09:50:31.004Z,1.20
2023-07-06T09:55:33.400Z,0.80
2023-07-06T10:00:41.269Z,1.08
2023-07-06T10:05:54.513Z,0.90
2023-07-06T10:11:26.291Z,1.30
2023-07-06T10:16:49.707Z,0.85
2023-07-06T10:22:20.087Z,1.00
2023-07-06T10:27:33.408Z,1.10
2023-07-06T10:32:45.591Z,1.15
2023-07-06T10:37:49.328Z,0.93
2023-07-06T10:43:16.048Z,1.02
2023-07-06T10:48:35.766Z,0.93
2023-07-06T10:53:43.422Z,0.90
2023-07-06T10:58:58.849Z,1.20
2023-07-06T11:04:02.357Z,2.22
2023-07-06T11:09:09.124Z,1.40
2023-07-06T11:14:20.497Z,1.35
2023-07-06T11:19:29.586Z,1.20
2023-07-06T11:24:39.512Z,1.08
2023-07-06T11:29:42.260Z,1.15
2023-07-06T11:34:49.896Z,1.38
2023-07-06T11:40:12.220Z,1.10
2023-07-06T11:45:40.952Z,1.08
2023-07-06T11:50:44.053Z,1.20
2023-07-06T11:55:56.661Z,1.15
2023-07-06T12:01:11.294Z,1.20
2023-07-06T12:06:16.367Z,1.02
2023-07-06T12:11:23.511Z,1.17
2023-07-06T12:16:45.969Z,1.33
2023-07-06T12:21:58.398Z,2.28
2023-07-06T12:27:04.187Z,1.33
2023-07-06T12:32:21.214Z,1.10
2023-07-06T12:37:32.275Z,1.20
2023-07-06T12:42:35.737Z,1.45
2023-07-06T12:47:43.959Z,1.73
2023-07-06T12:52:46.800Z,1.15
2023-07-06T12:57:49.218Z,0.88
2023-07-06T13:02:59.739Z,1.27
2023-07-06T13:08:10.246Z,1.88
2023-07-06T13:13:20.822Z,1.10
2023-07-06T13:18:23.128Z,1.60
2023-07-06T13:23:25.436Z,1.27
2023-07-06T13:28:28.247Z,1.45
2023-07-06T13:33:31.073Z,1.45
2023-07-06T13:38:33.297Z,1.48
2023-07-06T13:43:35.452Z,1.50
2023-07-06T13:48:39.231Z,1.38
2023-07-06T13:53:41.555Z,1.35
2023-07-06T13:58:45.245Z,1.50
2023-07-06T14:03:47.487Z,1.40
2023-07-06T14:08:49.701Z,1.38
2023-07-06T14:13:54.757Z,1.13
2023-07-06T14:18:57.652Z,2.20
2023-07-06T14:24:00.326Z,1.25
2023-07-06T14:29:02.619Z,1.58
2023-07-06T14:34:04.809Z,1.20
2023-07-06T14:39:08.692Z,1.23
2023-07-06T14:44:10.995Z,1.00
2023-07-06T14:49:13.687Z,1.33
2023-07-06T14:54:15.915Z,1.52
2023-07-06T14:59:18.042Z,1.25
2023-07-06T15:04:20.192Z,1.10
2023-07-06T15:09:22.430Z,1.33
2023-07-06T15:14:24.725Z,1.08
2023-07-06T15:19:26.814Z,1.40
2023-07-06T15:24:29.761Z,1.27
2023-07-06T15:29:32.097Z,1.20
2023-07-06T15:34:34.457Z,1.25
2023-07-06T15:39:37.717Z,1.30
2023-07-06T15:44:39.919Z,1.17
2023-07-06T15:49:43.042Z,1.30
2023-07-06T15:54:45.259Z,1.20
2023-07-06T15:59:52.461Z,1.33
2023-07-06T16:05:06.536Z,6.07
2023-07-06T16:10:08.962Z,1.30
2023-07-06T16:15:11.598Z,1.30
2023-07-06T16:20:13.873Z,1.15
2023-07-06T16:25:16.079Z,1.30
2023-07-06T16:30:21.292Z,1.95
2023-07-06T16:35:23.520Z,1.05
2023-07-06T16:40:25.693Z,1.48
2023-07-06T16:45:27.841Z,1.13
2023-07-06T16:50:29.970Z,1.45
2023-07-06T16:55:32.322Z,1.27
2023-07-06T17:00:34.606Z,1.75
2023-07-06T17:05:37.004Z,1.00
2023-07-06T17:10:39.207Z,0.90
2023-07-06T17:15:41.488Z,1.00
2023-07-06T17:20:43.696Z,1.30
2023-07-06T17:25:45.823Z,1.25
2023-07-06T17:30:48.161Z,1.00
2023-07-06T17:35:50.341Z,0.80
2023-07-06T17:41:12.591Z,1.05
2023-07-06T17:46:14.859Z,0.90
2023-07-06T17:51:17.084Z,0.85
2023-07-06T17:56:19.298Z,1.00
2023-07-06T18:01:21.547Z,0.90
2023-07-06T18:06:23.661Z,1.17
2023-07-06T18:11:25.829Z,1.10
2023-07-06T18:16:27.992Z,0.75
2023-07-06T18:21:30.150Z,0.60
2023-07-06T18:26:32.332Z,1.30
2023-07-06T18:31:34.589Z,1.00
2023-07-06T18:36:37.068Z,0.88
2023-07-06T18:41:39.333Z,1.02
2023-07-06T18:46:41.754Z,0.80
2023-07-06T18:51:44.246Z,1.35
2023-07-06T18:56:46.791Z,1.13
2023-07-06T19:01:49.028Z,0.77
2023-07-06T19:06:51.251Z,0.90
2023-07-06T19:11:53.377Z,1.00
2023-07-06T19:16:55.592Z,0.88
2023-07-06T19:21:57.802Z,0.80
2023-07-06T19:27:00.446Z,0.68
2023-07-06T19:32:12.102Z,1.17
2023-07-06T19:37:19.476Z,0.98
2023-07-06T19:42:21.581Z,0.70
2023-07-06T19:47:24.784Z,0.45
2023-07-06T19:52:31.049Z,0.77
2023-07-06T19:57:44.458Z,0.50
2023-07-06T20:02:47.681Z,0.93
2023-07-06T20:07:53.672Z,0.57
2023-07-06T20:12:56.000Z,1.08
2023-07-06T20:17:59.744Z,0.50
2023-07-06T20:23:01.917Z,0.65
2023-07-06T20:28:04.178Z,1.13
2023-07-06T20:33:06.362Z,0.60
2023-07-06T20:38:09.516Z,0.70
2023-07-06T20:43:12.175Z,1.35
2023-07-06T20:48:14.422Z,0.88
2023-07-06T20:53:17.083Z,1.00
2023-07-06T20:58:19.304Z,0.93
2023-07-06T21:03:21.636Z,1.10
2023-07-06T21:08:23.840Z,1.27
2023-07-06T21:13:26.089Z,2.03
2023-07-06T21:18:28.382Z,2.22
2023-07-06T21:23:30.629Z,1.40
2023-07-06T21:28:32.737Z,1.70
2023-07-06T21:33:34.914Z,1.45
2023-07-06T21:38:37.048Z,1.60
2023-07-06T21:43:39.444Z,1.50
2023-07-06T21:48:43.665Z,1.75
2023-07-06T21:53:45.811Z,1.30
2023-07-06T21:58:47.983Z,1.25
2023-07-06T22:03:50.825Z,1.35
2023-07-06T22:08:53.171Z,1.95
2023-07-06T22:13:55.589Z,1.42
2023-07-06T22:18:57.756Z,1.27
2023-07-06T22:23:59.852Z,1.20
2023-07-06T22:29:02.039Z,1.30
2023-07-06T22:34:04.255Z,1.77
2023-07-06T22:39:06.458Z,1.38
2023-07-06T22:44:08.746Z,1.50
2023-07-06T22:49:10.959Z,1.25
2023-07-06T22:54:13.204Z,1.48
2023-07-06T22:59:15.551Z,1.58
2023-07-06T23:04:17.813Z,1.73
2023-07-06T23:09:20.649Z,1.08
2023-07-06T23:14:22.759Z,1.30
2023-07-06T23:19:26.131Z,1.17
2023-07-06T23:24:30.011Z,1.33
2023-07-06T23:29:34.324Z,2.03
2023-07-06T23:34:38.868Z,1.20
2023-07-06T23:39:40.992Z,1.50
2023-07-06T23:44:43.171Z,1.20
2023-07-06T23:49:45.296Z,1.17
2023-07-06T23:54:47.434Z,1.33
2023-07-06T23:59:49.567Z,1.15
